sensor_id;sensor_type;location;lat;lon;timestamp;P1;durP1;ratioP1;P2;durP2;ratioP2
26906;SDS011;14472;56.880;16.658;2022-11-14T00:00:35;2.50;;;2.30;;
26906;SDS011;14472;56.880;16.658;2022-11-14T00:03:02;3.27;;;2.50;;
26906;SDS011;14472;56.880;16.658;2022-11-14T00:05:29;3.90;;;2.40;;
26906;SDS011;14472;56.880;16.658;2022-11-14T00:07:55;3.30;;;2.43;;
26906;SDS011;14472;56.880;16.658;2022-11-14T00:10:21;2.63;;;2.43;;
26906;SDS011;14472;56.880;16.658;2022-11-14T00:12:46;3.27;;;2.40;;
26906;SDS011;14472;56.880;16.658;2022-11-14T00:15:12;2.73;;;2.37;;
26906;SDS011;14472;56.880;16.658;2022-11-14T00:17:38;2.87;;;2.57;;
26906;SDS011;14472;56.880;16.658;2022-11-14T00:20:05;2.93;;;2.60;;
26906;SDS011;14472;56.880;16.658;2022-11-14T00:22:32;2.73;;;2.53;;
26906;SDS011;14472;56.880;16.658;2022-11-14T00:24:59;3.43;;;2.77;;
26906;SDS011;14472;56.880;16.658;2022-11-14T00:27:24;2.60;;;2.40;;
26906;SDS011;14472;56.880;16.658;2022-11-14T00:29:50;3.00;;;2.70;;
26906;SDS011;14472;56.880;16.658;2022-11-14T00:32:16;2.77;;;2.23;;
26906;SDS011;14472;56.880;16.658;2022-11-14T00:34:42;3.53;;;2.73;;
26906;SDS011;14472;56.880;16.658;2022-11-14T00:37:08;2.57;;;2.37;;
26906;SDS011;14472;56.880;16.658;2022-11-14T00:39:34;2.77;;;2.40;;
26906;SDS011;14472;56.880;16.658;2022-11-14T00:41:59;2.73;;;2.40;;
26906;SDS011;14472;56.880;16.658;2022-11-14T00:44:25;2.63;;;2.33;;
26906;SDS011;14472;56.880;16.658;2022-11-14T00:46:51;2.97;;;2.50;;
26906;SDS011;14472;56.880;16.658;2022-11-14T00:49:16;2.60;;;2.40;;
26906;SDS011;14472;56.880;16.658;2022-11-14T00:51:42;2.87;;;2.30;;
26906;SDS011;14472;56.880;16.658;2022-11-14T00:54:08;3.13;;;2.47;;
26906;SDS011;14472;56.880;16.658;2022-11-14T00:56:33;2.90;;;2.17;;
26906;SDS011;14472;56.880;16.658;2022-11-14T00:58:59;3.23;;;2.20;;
26906;SDS011;14472;56.880;16.658;2022-11-14T01:01:25;2.47;;;2.20;;
26906;SDS011;14472;56.880;16.658;2022-11-14T01:03:51;3.50;;;2.43;;
26906;SDS011;14472;56.880;16.658;2022-11-14T01:06:17;3.20;;;2.17;;
26906;SDS011;14472;56.880;16.658;2022-11-14T01:08:43;2.80;;;2.50;;
26906;SDS011;14472;56.880;16.658;2022-11-14T01:11:10;3.53;;;2.33;;
26906;SDS011;14472;56.880;16.658;2022-11-14T01:13:41;3.27;;;2.37;;
26906;SDS011;14472;56.880;16.658;2022-11-14T01:16:07;3.03;;;2.43;;
26906;SDS011;14472;56.880;16.658;2022-11-14T01:18:34;2.77;;;2.43;;
26906;SDS011;14472;56.880;16.658;2022-11-14T01:21:03;3.77;;;2.40;;
26906;SDS011;14472;56.880;16.658;2022-11-14T01:23:31;2.83;;;2.00;;
26906;SDS011;14472;56.880;16.658;2022-11-14T01:26:03;3.00;;;2.67;;
26906;SDS011;14472;56.880;16.658;2022-11-14T01:28:31;2.87;;;2.50;;
26906;SDS011;14472;56.880;16.658;2022-11-14T01:31:06;4.23;;;2.70;;
26906;SDS011;14472;56.880;16.658;2022-11-14T01:33:37;2.70;;;2.50;;
26906;SDS011;14472;56.880;16.658;2022-11-14T01:36:02;2.93;;;2.30;;
26906;SDS011;14472;56.880;16.658;2022-11-14T01:38:29;3.50;;;2.50;;
26906;SDS011;14472;56.880;16.658;2022-11-14T01:40:55;4.63;;;3.00;;
26906;SDS011;14472;56.880;16.658;2022-11-14T01:46:04;3.43;;;2.97;;
26906;SDS011;14472;56.880;16.658;2022-11-14T01:48:34;3.13;;;2.83;;
26906;SDS011;14472;56.880;16.658;2022-11-14T01:53:42;3.30;;;3.00;;
26906;SDS011;14472;56.880;16.658;2022-11-14T01:56:11;3.30;;;3.00;;
26906;SDS011;14472;56.880;16.658;2022-11-14T01:58:43;4.70;;;3.30;;
26906;SDS011;14472;56.880;16.658;2022-11-14T02:01:13;3.90;;;2.97;;
26906;SDS011;14472;56.880;16.658;2022-11-14T02:03:39;3.10;;;2.80;;
26906;SDS011;14472;56.880;16.658;2022-11-14T02:06:08;3.07;;;2.77;;
26906;SDS011;14472;56.880;16.658;2022-11-14T02:08:36;3.30;;;3.00;;
26906;SDS011;14472;56.880;16.658;2022-11-14T02:11:03;4.40;;;2.90;;
26906;SDS011;14472;56.880;16.658;2022-11-14T02:13:29;3.63;;;2.90;;
26906;SDS011;14472;56.880;16.658;2022-11-14T02:15:55;3.27;;;2.97;;
26906;SDS011;14472;56.880;16.658;2022-11-14T02:18:21;3.93;;;3.30;;
26906;SDS011;14472;56.880;16.658;2022-11-14T02:20:46;3.90;;;3.37;;
26906;SDS011;14472;56.880;16.658;2022-11-14T02:23:12;4.30;;;3.27;;
26906;SDS011;14472;56.880;16.658;2022-11-14T02:25:38;4.60;;;3.33;;
26906;SDS011;14472;56.880;16.658;2022-11-14T02:28:05;4.07;;;3.40;;
26906;SDS011;14472;56.880;16.658;2022-11-14T02:30:32;3.73;;;3.13;;
26906;SDS011;14472;56.880;16.658;2022-11-14T02:32:58;4.73;;;3.23;;
26906;SDS011;14472;56.880;16.658;2022-11-14T02:35:23;3.93;;;3.50;;
26906;SDS011;14472;56.880;16.658;2022-11-14T02:37:49;4.23;;;3.40;;
26906;SDS011;14472;56.880;16.658;2022-11-14T02:40:15;4.83;;;3.97;;
26906;SDS011;14472;56.880;16.658;2022-11-14T02:42:41;3.93;;;3.37;;
26906;SDS011;14472;56.880;16.658;2022-11-14T02:45:06;3.90;;;3.43;;
26906;SDS011;14472;56.880;16.658;2022-11-14T02:47:33;3.87;;;3.30;;
26906;SDS011;14472;56.880;16.658;2022-11-14T02:49:59;5.03;;;3.70;;
26906;SDS011;14472;56.880;16.658;2022-11-14T02:52:24;4.03;;;3.63;;
26906;SDS011;14472;56.880;16.658;2022-11-14T02:54:50;4.97;;;3.50;;
26906;SDS011;14472;56.880;16.658;2022-11-14T02:57:16;4.63;;;3.67;;
26906;SDS011;14472;56.880;16.658;2022-11-14T02:59:41;3.80;;;3.40;;
26906;SDS011;14472;56.880;16.658;2022-11-14T03:02:07;4.50;;;3.73;;
26906;SDS011;14472;56.880;16.658;2022-11-14T03:04:33;4.30;;;3.37;;
26906;SDS011;14472;56.880;16.658;2022-11-14T03:06:58;4.67;;;3.13;;
26906;SDS011;14472;56.880;16.658;2022-11-14T03:09:24;5.10;;;3.63;;
26906;SDS011;14472;56.880;16.658;2022-11-14T03:11:50;4.37;;;3.40;;
26906;SDS011;14472;56.880;16.658;2022-11-14T03:14:15;4.37;;;3.60;;
26906;SDS011;14472;56.880;16.658;2022-11-14T03:16:41;4.80;;;3.60;;
26906;SDS011;14472;56.880;16.658;2022-11-14T03:19:07;4.33;;;3.70;;
26906;SDS011;14472;56.880;16.658;2022-11-14T03:21:32;5.43;;;3.60;;
26906;SDS011;14472;56.880;16.658;2022-11-14T03:23:58;5.07;;;3.60;;
26906;SDS011;14472;56.880;16.658;2022-11-14T03:26:23;5.07;;;3.50;;
26906;SDS011;14472;56.880;16.658;2022-11-14T03:28:49;4.17;;;3.50;;
26906;SDS011;14472;56.880;16.658;2022-11-14T03:31:15;5.37;;;3.43;;
26906;SDS011;14472;56.880;16.658;2022-11-14T03:33:40;5.97;;;3.90;;
26906;SDS011;14472;56.880;16.658;2022-11-14T03:36:06;4.90;;;3.63;;
26906;SDS011;14472;56.880;16.658;2022-11-14T03:38:32;5.60;;;3.90;;
26906;SDS011;14472;56.880;16.658;2022-11-14T03:40:58;5.63;;;4.23;;
26906;SDS011;14472;56.880;16.658;2022-11-14T03:43:25;5.80;;;4.17;;
26906;SDS011;14472;56.880;16.658;2022-11-14T03:45:56;4.90;;;3.90;;
26906;SDS011;14472;56.880;16.658;2022-11-14T03:48:22;4.00;;;3.60;;
26906;SDS011;14472;56.880;16.658;2022-11-14T03:50:48;4.77;;;3.70;;
26906;SDS011;14472;56.880;16.658;2022-11-14T03:53:14;4.60;;;4.00;;
26906;SDS011;14472;56.880;16.658;2022-11-14T03:55:41;5.57;;;4.07;;
26906;SDS011;14472;56.880;16.658;2022-11-14T03:58:07;6.07;;;4.37;;
26906;SDS011;14472;56.880;16.658;2022-11-14T04:00:33;5.90;;;4.37;;
26906;SDS011;14472;56.880;16.658;2022-11-14T04:02:59;6.37;;;3.70;;
26906;SDS011;14472;56.880;16.658;2022-11-14T04:05:24;4.63;;;4.10;;
26906;SDS011;14472;56.880;16.658;2022-11-14T04:07:50;4.80;;;4.10;;
26906;SDS011;14472;56.880;16.658;2022-11-14T04:10:16;4.43;;;4.03;;
26906;SDS011;14472;56.880;16.658;2022-11-14T04:12:46;4.77;;;4.10;;
26906;SDS011;14472;56.880;16.658;2022-11-14T04:15:13;5.37;;;3.50;;
26906;SDS011;14472;56.880;16.658;2022-11-14T04:17:39;4.10;;;3.70;;
26906;SDS011;14472;56.880;16.658;2022-11-14T04:20:05;4.63;;;3.97;;
26906;SDS011;14472;56.880;16.658;2022-11-14T04:22:31;4.80;;;4.00;;
26906;SDS011;14472;56.880;16.658;2022-11-14T04:24:56;4.77;;;3.80;;
26906;SDS011;14472;56.880;16.658;2022-11-14T04:27:22;5.10;;;4.23;;
26906;SDS011;14472;56.880;16.658;2022-11-14T04:29:48;5.37;;;4.20;;
26906;SDS011;14472;56.880;16.658;2022-11-14T04:32:13;5.00;;;4.47;;
26906;SDS011;14472;56.880;16.658;2022-11-14T04:34:39;5.13;;;4.60;;
26906;SDS011;14472;56.880;16.658;2022-11-14T04:37:05;6.47;;;5.27;;
26906;SDS011;14472;56.880;16.658;2022-11-14T04:39:30;6.30;;;5.70;;
26906;SDS011;14472;56.880;16.658;2022-11-14T04:41:56;5.43;;;4.90;;
26906;SDS011;14472;56.880;16.658;2022-11-14T04:44:22;5.70;;;5.13;;
26906;SDS011;14472;56.880;16.658;2022-11-14T04:46:47;6.90;;;5.93;;
26906;SDS011;14472;56.880;16.658;2022-11-14T04:49:13;7.70;;;6.90;;
26906;SDS011;14472;56.880;16.658;2022-11-14T04:51:39;7.90;;;6.63;;
26906;SDS011;14472;56.880;16.658;2022-11-14T04:54:04;7.40;;;6.33;;
26906;SDS011;14472;56.880;16.658;2022-11-14T04:56:30;5.90;;;5.27;;
26906;SDS011;14472;56.880;16.658;2022-11-14T04:58:56;5.80;;;5.00;;
26906;SDS011;14472;56.880;16.658;2022-11-14T05:01:21;5.83;;;4.20;;
26906;SDS011;14472;56.880;16.658;2022-11-14T05:03:47;5.73;;;4.43;;
26906;SDS011;14472;56.880;16.658;2022-11-14T05:06:13;7.07;;;4.50;;
26906;SDS011;14472;56.880;16.658;2022-11-14T05:08:38;5.13;;;4.63;;
26906;SDS011;14472;56.880;16.658;2022-11-14T05:11:04;5.10;;;4.43;;
26906;SDS011;14472;56.880;16.658;2022-11-14T05:13:30;7.27;;;4.57;;
26906;SDS011;14472;56.880;16.658;2022-11-14T05:15:59;4.90;;;4.40;;
26906;SDS011;14472;56.880;16.658;2022-11-14T05:18:24;5.33;;;4.47;;
26906;SDS011;14472;56.880;16.658;2022-11-14T05:20:50;5.63;;;4.33;;
26906;SDS011;14472;56.880;16.658;2022-11-14T05:23:18;5.47;;;4.20;;
26906;SDS011;14472;56.880;16.658;2022-11-14T05:25:45;5.27;;;3.90;;
26906;SDS011;14472;56.880;16.658;2022-11-14T05:28:11;5.40;;;4.00;;
26906;SDS011;14472;56.880;16.658;2022-11-14T05:30:37;4.43;;;3.87;;
26906;SDS011;14472;56.880;16.658;2022-11-14T05:33:03;5.37;;;3.50;;
26906;SDS011;14472;56.880;16.658;2022-11-14T05:35:28;5.60;;;3.90;;
26906;SDS011;14472;56.880;16.658;2022-11-14T05:37:54;5.30;;;3.80;;
26906;SDS011;14472;56.880;16.658;2022-11-14T05:40:20;5.93;;;3.40;;
26906;SDS011;14472;56.880;16.658;2022-11-14T05:42:45;6.30;;;3.80;;
26906;SDS011;14472;56.880;16.658;2022-11-14T05:45:11;6.40;;;4.00;;
26906;SDS011;14472;56.880;16.658;2022-11-14T05:47:37;5.03;;;4.10;;
26906;SDS011;14472;56.880;16.658;2022-11-14T05:50:02;5.20;;;4.10;;
26906;SDS011;14472;56.880;16.658;2022-11-14T05:52:29;5.60;;;4.40;;
26906;SDS011;14472;56.880;16.658;2022-11-14T05:54:55;4.40;;;4.00;;
26906;SDS011;14472;56.880;16.658;2022-11-14T05:57:20;4.87;;;3.80;;
26906;SDS011;14472;56.880;16.658;2022-11-14T05:59:46;4.23;;;3.80;;
26906;SDS011;14472;56.880;16.658;2022-11-14T06:02:12;4.73;;;4.17;;
26906;SDS011;14472;56.880;16.658;2022-11-14T06:04:38;4.70;;;4.20;;
26906;SDS011;14472;56.880;16.658;2022-11-14T06:07:03;5.30;;;3.93;;
26906;SDS011;14472;56.880;16.658;2022-11-14T06:09:29;4.43;;;3.57;;
26906;SDS011;14472;56.880;16.658;2022-11-14T06:11:55;5.27;;;4.30;;
26906;SDS011;14472;56.880;16.658;2022-11-14T06:14:20;4.73;;;4.20;;
26906;SDS011;14472;56.880;16.658;2022-11-14T06:16:46;5.23;;;4.40;;
26906;SDS011;14472;56.880;16.658;2022-11-14T06:19:12;5.37;;;4.00;;
26906;SDS011;14472;56.880;16.658;2022-11-14T06:21:37;5.00;;;4.37;;
26906;SDS011;14472;56.880;16.658;2022-11-14T06:24:03;5.50;;;4.60;;
26906;SDS011;14472;56.880;16.658;2022-11-14T06:26:30;6.90;;;4.47;;
26906;SDS011;14472;56.880;16.658;2022-11-14T06:28:56;7.67;;;4.53;;
26906;SDS011;14472;56.880;16.658;2022-11-14T06:31:23;7.27;;;5.13;;
26906;SDS011;14472;56.880;16.658;2022-11-14T06:33:49;7.47;;;5.10;;
26906;SDS011;14472;56.880;16.658;2022-11-14T06:36:15;6.20;;;5.00;;
26906;SDS011;14472;56.880;16.658;2022-11-14T06:38:42;9.23;;;5.33;;
26906;SDS011;14472;56.880;16.658;2022-11-14T06:41:15;7.23;;;5.13;;
26906;SDS011;14472;56.880;16.658;2022-11-14T06:43:43;7.60;;;5.80;;
26906;SDS011;14472;56.880;16.658;2022-11-14T06:46:11;7.47;;;5.13;;
26906;SDS011;14472;56.880;16.658;2022-11-14T06:48:39;6.83;;;5.80;;
26906;SDS011;14472;56.880;16.658;2022-11-14T06:51:05;6.63;;;5.83;;
26906;SDS011;14472;56.880;16.658;2022-11-14T06:53:33;6.43;;;5.63;;
26906;SDS011;14472;56.880;16.658;2022-11-14T06:56:00;6.70;;;6.00;;
26906;SDS011;14472;56.880;16.658;2022-11-14T06:58:28;9.07;;;6.17;;
26906;SDS011;14472;56.880;16.658;2022-11-14T07:01:01;9.03;;;5.63;;
26906;SDS011;14472;56.880;16.658;2022-11-14T07:03:31;7.43;;;5.43;;
26906;SDS011;14472;56.880;16.658;2022-11-14T07:05:58;10.57;;;6.17;;
26906;SDS011;14472;56.880;16.658;2022-11-14T07:08:24;6.77;;;6.07;;
26906;SDS011;14472;56.880;16.658;2022-11-14T07:10:50;10.50;;;6.27;;
26906;SDS011;14472;56.880;16.658;2022-11-14T07:13:16;9.17;;;5.70;;
26906;SDS011;14472;56.880;16.658;2022-11-14T07:15:48;8.93;;;6.23;;
26906;SDS011;14472;56.880;16.658;2022-11-14T07:18:16;7.47;;;5.73;;
26906;SDS011;14472;56.880;16.658;2022-11-14T07:20:41;8.00;;;5.93;;
26906;SDS011;14472;56.880;16.658;2022-11-14T07:23:07;8.10;;;5.70;;
26906;SDS011;14472;56.880;16.658;2022-11-14T07:25:33;8.40;;;5.73;;
26906;SDS011;14472;56.880;16.658;2022-11-14T07:27:58;7.60;;;5.73;;
26906;SDS011;14472;56.880;16.658;2022-11-14T07:30:24;8.47;;;6.07;;
26906;SDS011;14472;56.880;16.658;2022-11-14T07:32:53;8.83;;;5.67;;
26906;SDS011;14472;56.880;16.658;2022-11-14T07:35:22;7.07;;;5.40;;
26906;SDS011;14472;56.880;16.658;2022-11-14T07:37:49;11.63;;;5.70;;
26906;SDS011;14472;56.880;16.658;2022-11-14T07:40:15;8.23;;;5.60;;
26906;SDS011;14472;56.880;16.658;2022-11-14T07:42:42;9.10;;;5.43;;
26906;SDS011;14472;56.880;16.658;2022-11-14T07:45:08;8.73;;;5.47;;
26906;SDS011;14472;56.880;16.658;2022-11-14T07:47:34;7.73;;;6.13;;
26906;SDS011;14472;56.880;16.658;2022-11-14T07:50:00;9.37;;;5.73;;
26906;SDS011;14472;56.880;16.658;2022-11-14T07:52:26;7.90;;;5.40;;
26906;SDS011;14472;56.880;16.658;2022-11-14T07:54:52;6.83;;;5.40;;
26906;SDS011;14472;56.880;16.658;2022-11-14T07:57:18;8.13;;;5.63;;
26906;SDS011;14472;56.880;16.658;2022-11-14T07:59:43;7.93;;;5.30;;
26906;SDS011;14472;56.880;16.658;2022-11-14T08:02:12;7.57;;;4.90;;
26906;SDS011;14472;56.880;16.658;2022-11-14T08:04:39;7.37;;;5.37;;
26906;SDS011;14472;56.880;16.658;2022-11-14T08:07:06;8.53;;;4.97;;
26906;SDS011;14472;56.880;16.658;2022-11-14T08:09:32;7.77;;;5.10;;
26906;SDS011;14472;56.880;16.658;2022-11-14T08:11:58;9.03;;;5.03;;
26906;SDS011;14472;56.880;16.658;2022-11-14T08:14:23;7.97;;;5.00;;
26906;SDS011;14472;56.880;16.658;2022-11-14T08:16:49;6.97;;;4.87;;
26906;SDS011;14472;56.880;16.658;2022-11-14T08:19:15;8.30;;;5.20;;
26906;SDS011;14472;56.880;16.658;2022-11-14T08:21:41;6.23;;;4.90;;
26906;SDS011;14472;56.880;16.658;2022-11-14T08:24:08;9.20;;;5.30;;
26906;SDS011;14472;56.880;16.658;2022-11-14T08:26:33;6.17;;;4.70;;
26906;SDS011;14472;56.880;16.658;2022-11-14T08:28:59;6.57;;;5.03;;
26906;SDS011;14472;56.880;16.658;2022-11-14T08:31:25;7.10;;;4.73;;
26906;SDS011;14472;56.880;16.658;2022-11-14T08:33:51;7.87;;;4.80;;
26906;SDS011;14472;56.880;16.658;2022-11-14T08:36:17;6.33;;;4.60;;
26906;SDS011;14472;56.880;16.658;2022-11-14T08:38:43;7.73;;;4.70;;
26906;SDS011;14472;56.880;16.658;2022-11-14T08:41:08;7.73;;;4.90;;
26906;SDS011;14472;56.880;16.658;2022-11-14T08:43:34;7.13;;;4.60;;
26906;SDS011;14472;56.880;16.658;2022-11-14T08:46:01;7.67;;;4.77;;
26906;SDS011;14472;56.880;16.658;2022-11-14T08:48:28;6.10;;;4.80;;
26906;SDS011;14472;56.880;16.658;2022-11-14T08:50:55;5.87;;;4.93;;
26906;SDS011;14472;56.880;16.658;2022-11-14T08:53:21;7.20;;;5.50;;
26906;SDS011;14472;56.880;16.658;2022-11-14T08:55:47;7.07;;;4.97;;
26906;SDS011;14472;56.880;16.658;2022-11-14T08:58:13;5.90;;;4.93;;
26906;SDS011;14472;56.880;16.658;2022-11-14T09:00:40;6.43;;;4.77;;
26906;SDS011;14472;56.880;16.658;2022-11-14T09:03:09;9.03;;;5.10;;
26906;SDS011;14472;56.880;16.658;2022-11-14T09:05:40;8.50;;;5.10;;
26906;SDS011;14472;56.880;16.658;2022-11-14T09:08:06;6.90;;;5.23;;
26906;SDS011;14472;56.880;16.658;2022-11-14T09:10:32;7.97;;;5.17;;
26906;SDS011;14472;56.880;16.658;2022-11-14T09:12:59;6.13;;;4.87;;
26906;SDS011;14472;56.880;16.658;2022-11-14T09:15:29;5.90;;;5.03;;
26906;SDS011;14472;56.880;16.658;2022-11-14T09:17:55;6.57;;;5.33;;
26906;SDS011;14472;56.880;16.658;2022-11-14T09:20:22;7.97;;;5.10;;
26906;SDS011;14472;56.880;16.658;2022-11-14T09:22:49;6.50;;;5.03;;
26906;SDS011;14472;56.880;16.658;2022-11-14T09:25:17;7.33;;;5.00;;
26906;SDS011;14472;56.880;16.658;2022-11-14T09:27:45;5.10;;;4.60;;
26906;SDS011;14472;56.880;16.658;2022-11-14T09:30:11;7.33;;;4.70;;
26906;SDS011;14472;56.880;16.658;2022-11-14T09:32:38;5.30;;;4.27;;
26906;SDS011;14472;56.880;16.658;2022-11-14T09:35:04;6.23;;;4.17;;
26906;SDS011;14472;56.880;16.658;2022-11-14T09:37:30;6.13;;;4.40;;
26906;SDS011;14472;56.880;16.658;2022-11-14T09:39:55;5.43;;;4.40;;
26906;SDS011;14472;56.880;16.658;2022-11-14T09:47:34;6.10;;;3.90;;
26906;SDS011;14472;56.880;16.658;2022-11-14T09:50:11;5.67;;;4.47;;
26906;SDS011;14472;56.880;16.658;2022-11-14T09:52:44;5.27;;;4.00;;
26906;SDS011;14472;56.880;16.658;2022-11-14T09:55:17;4.53;;;4.13;;
26906;SDS011;14472;56.880;16.658;2022-11-14T09:57:45;6.53;;;4.27;;
26906;SDS011;14472;56.880;16.658;2022-11-14T10:27:03;5.67;;;4.27;;
26906;SDS011;14472;56.880;16.658;2022-11-14T10:34:41;4.73;;;3.23;;
26906;SDS011;14472;56.880;16.658;2022-11-14T10:42:39;5.13;;;3.43;;
26906;SDS011;14472;56.880;16.658;2022-11-14T10:45:16;5.17;;;3.80;;
26906;SDS011;14472;56.880;16.658;2022-11-14T10:47:45;4.60;;;3.27;;
26906;SDS011;14472;56.880;16.658;2022-11-14T10:50:19;3.37;;;3.07;;
26906;SDS011;14472;56.880;16.658;2022-11-14T10:52:47;4.80;;;3.47;;
26906;SDS011;14472;56.880;16.658;2022-11-14T10:55:18;4.80;;;3.40;;
26906;SDS011;14472;56.880;16.658;2022-11-14T10:57:45;5.27;;;3.77;;
26906;SDS011;14472;56.880;16.658;2022-11-14T11:00:12;4.23;;;3.17;;
26906;SDS011;14472;56.880;16.658;2022-11-14T11:02:54;4.30;;;3.10;;
26906;SDS011;14472;56.880;16.658;2022-11-14T11:05:23;4.53;;;3.20;;
26906;SDS011;14472;56.880;16.658;2022-11-14T11:07:56;3.77;;;3.07;;
26906;SDS011;14472;56.880;16.658;2022-11-14T11:10:42;4.27;;;2.73;;
26906;SDS011;14472;56.880;16.658;2022-11-14T11:13:33;3.53;;;2.80;;
26906;SDS011;14472;56.880;16.658;2022-11-14T11:16:04;3.20;;;2.80;;
26906;SDS011;14472;56.880;16.658;2022-11-14T11:18:31;3.57;;;2.57;;
26906;SDS011;14472;56.880;16.658;2022-11-14T11:23:30;4.30;;;2.90;;
26906;SDS011;14472;56.880;16.658;2022-11-14T11:26:03;4.50;;;2.80;;
26906;SDS011;14472;56.880;16.658;2022-11-14T11:28:33;3.50;;;2.77;;
26906;SDS011;14472;56.880;16.658;2022-11-14T11:31:01;3.00;;;2.30;;
26906;SDS011;14472;56.880;16.658;2022-11-14T11:33:33;4.20;;;2.70;;
26906;SDS011;14472;56.880;16.658;2022-11-14T11:36:09;2.67;;;2.40;;
26906;SDS011;14472;56.880;16.658;2022-11-14T11:38:39;2.93;;;2.50;;
26906;SDS011;14472;56.880;16.658;2022-11-14T11:41:20;2.63;;;2.30;;
26906;SDS011;14472;56.880;16.658;2022-11-14T11:48:54;3.17;;;2.33;;
26906;SDS011;14472;56.880;16.658;2022-11-14T11:51:29;3.20;;;2.23;;
26906;SDS011;14472;56.880;16.658;2022-11-14T11:54:03;2.80;;;2.50;;
26906;SDS011;14472;56.880;16.658;2022-11-14T11:56:51;3.33;;;2.50;;
26906;SDS011;14472;56.880;16.658;2022-11-14T11:59:33;3.57;;;2.67;;
26906;SDS011;14472;56.880;16.658;2022-11-14T12:02:10;3.17;;;2.60;;
26906;SDS011;14472;56.880;16.658;2022-11-14T12:04:46;3.53;;;2.60;;
26906;SDS011;14472;56.880;16.658;2022-11-14T12:07:15;3.40;;;2.67;;
26906;SDS011;14472;56.880;16.658;2022-11-14T12:10:13;3.77;;;2.70;;
26906;SDS011;14472;56.880;16.658;2022-11-14T12:13:03;4.10;;;2.70;;
26906;SDS011;14472;56.880;16.658;2022-11-14T12:22:08;3.93;;;3.10;;
26906;SDS011;14472;56.880;16.658;2022-11-14T12:30:25;4.53;;;2.97;;
26906;SDS011;14472;56.880;16.658;2022-11-14T12:35:44;4.07;;;2.90;;
26906;SDS011;14472;56.880;16.658;2022-11-14T12:38:15;6.40;;;3.00;;
26906;SDS011;14472;56.880;16.658;2022-11-14T12:40:49;4.60;;;3.63;;
26906;SDS011;14472;56.880;16.658;2022-11-14T12:43:33;4.70;;;2.93;;
26906;SDS011;14472;56.880;16.658;2022-11-14T12:46:04;4.30;;;3.43;;
26906;SDS011;14472;56.880;16.658;2022-11-14T12:48:42;2.73;;;2.50;;
26906;SDS011;14472;56.880;16.658;2022-11-14T12:53:53;4.30;;;2.80;;
26906;SDS011;14472;56.880;16.658;2022-11-14T13:12:26;5.63;;;3.33;;
26906;SDS011;14472;56.880;16.658;2022-11-14T13:18:24;4.80;;;3.33;;
26906;SDS011;14472;56.880;16.658;2022-11-14T13:21:28;4.77;;;3.33;;
26906;SDS011;14472;56.880;16.658;2022-11-14T13:24:10;4.67;;;2.87;;
26906;SDS011;14472;56.880;16.658;2022-11-14T13:26:47;3.67;;;3.00;;
26906;SDS011;14472;56.880;16.658;2022-11-14T13:32:11;3.67;;;3.00;;
26906;SDS011;14472;56.880;16.658;2022-11-14T13:35:03;3.60;;;2.53;;
26906;SDS011;14472;56.880;16.658;2022-11-14T13:40:24;3.47;;;3.00;;
26906;SDS011;14472;56.880;16.658;2022-11-14T13:51:06;5.57;;;3.27;;
26906;SDS011;14472;56.880;16.658;2022-11-14T13:53:37;4.17;;;3.30;;
26906;SDS011;14472;56.880;16.658;2022-11-14T14:01:27;4.17;;;3.50;;
26906;SDS011;14472;56.880;16.658;2022-11-14T14:10:03;4.57;;;3.00;;
26906;SDS011;14472;56.880;16.658;2022-11-14T14:15:26;5.00;;;3.07;;
26906;SDS011;14472;56.880;16.658;2022-11-14T14:18:34;3.70;;;3.20;;
26906;SDS011;14472;56.880;16.658;2022-11-14T14:32:37;3.53;;;2.87;;
26906;SDS011;14472;56.880;16.658;2022-11-14T14:37:52;4.33;;;3.20;;
26906;SDS011;14472;56.880;16.658;2022-11-14T14:40:26;4.53;;;3.10;;
26906;SDS011;14472;56.880;16.658;2022-11-14T14:42:55;4.70;;;2.80;;
26906;SDS011;14472;56.880;16.658;2022-11-14T14:45:23;5.93;;;3.07;;
26906;SDS011;14472;56.880;16.658;2022-11-14T14:48:14;3.67;;;2.93;;
26906;SDS011;14472;56.880;16.658;2022-11-14T14:50:49;5.67;;;3.10;;
26906;SDS011;14472;56.880;16.658;2022-11-14T14:53:18;5.63;;;3.20;;
26906;SDS011;14472;56.880;16.658;2022-11-14T14:55:51;4.00;;;2.80;;
26906;SDS011;14472;56.880;16.658;2022-11-14T15:00:54;3.67;;;2.97;;
26906;SDS011;14472;56.880;16.658;2022-11-14T15:03:23;4.23;;;2.73;;
26906;SDS011;14472;56.880;16.658;2022-11-14T15:05:58;4.20;;;3.07;;
26906;SDS011;14472;56.880;16.658;2022-11-14T15:08:25;3.83;;;2.80;;
26906;SDS011;14472;56.880;16.658;2022-11-14T15:10:55;3.37;;;2.80;;
26906;SDS011;14472;56.880;16.658;2022-11-14T15:13:26;4.70;;;2.87;;
26906;SDS011;14472;56.880;16.658;2022-11-14T15:15:53;4.97;;;3.37;;
26906;SDS011;14472;56.880;16.658;2022-11-14T15:18:26;4.13;;;2.90;;
26906;SDS011;14472;56.880;16.658;2022-11-14T15:21:10;3.83;;;3.40;;
26906;SDS011;14472;56.880;16.658;2022-11-14T15:23:56;3.87;;;2.90;;
26906;SDS011;14472;56.880;16.658;2022-11-14T15:26:37;4.20;;;3.03;;
26906;SDS011;14472;56.880;16.658;2022-11-14T15:29:13;3.80;;;3.37;;
26906;SDS011;14472;56.880;16.658;2022-11-14T15:31:48;3.90;;;3.03;;
26906;SDS011;14472;56.880;16.658;2022-11-14T15:34:22;4.07;;;3.10;;
26906;SDS011;14472;56.880;16.658;2022-11-14T15:39:40;5.33;;;3.17;;
26906;SDS011;14472;56.880;16.658;2022-11-14T15:42:17;4.37;;;3.20;;
26906;SDS011;14472;56.880;16.658;2022-11-14T21:53:42;5.60;;;5.10;;
26906;SDS011;14472;56.880;16.658;2022-11-14T21:56:13;6.73;;;5.70;;
26906;SDS011;14472;56.880;16.658;2022-11-14T21:58:42;7.27;;;5.83;;
26906;SDS011;14472;56.880;16.658;2022-11-14T22:01:12;5.70;;;5.20;;
26906;SDS011;14472;56.880;16.658;2022-11-14T22:03:40;5.30;;;4.60;;
26906;SDS011;14472;56.880;16.658;2022-11-14T22:06:25;5.00;;;4.50;;
26906;SDS011;14472;56.880;16.658;2022-11-14T22:08:52;5.87;;;5.00;;
26906;SDS011;14472;56.880;16.658;2022-11-14T22:11:19;5.03;;;4.43;;
26906;SDS011;14472;56.880;16.658;2022-11-14T22:13:45;5.40;;;4.90;;
26906;SDS011;14472;56.880;16.658;2022-11-14T22:16:11;5.37;;;4.87;;
26906;SDS011;14472;56.880;16.658;2022-11-14T22:18:41;5.70;;;5.00;;
26906;SDS011;14472;56.880;16.658;2022-11-14T22:21:10;5.43;;;4.87;;
26906;SDS011;14472;56.880;16.658;2022-11-14T22:23:36;5.07;;;4.57;;
26906;SDS011;14472;56.880;16.658;2022-11-14T22:26:02;6.37;;;5.27;;
26906;SDS011;14472;56.880;16.658;2022-11-14T22:28:27;5.83;;;5.13;;
26906;SDS011;14472;56.880;16.658;2022-11-14T22:31:08;5.40;;;4.87;;
26906;SDS011;14472;56.880;16.658;2022-11-14T22:33:38;5.73;;;5.17;;
26906;SDS011;14472;56.880;16.658;2022-11-14T22:36:10;5.77;;;4.90;;
26906;SDS011;14472;56.880;16.658;2022-11-14T22:38:40;5.07;;;4.57;;
26906;SDS011;14472;56.880;16.658;2022-11-14T22:41:10;5.27;;;4.77;;
26906;SDS011;14472;56.880;16.658;2022-11-14T22:43:37;4.67;;;4.23;;
26906;SDS011;14472;56.880;16.658;2022-11-14T22:46:04;4.77;;;4.03;;
26906;SDS011;14472;56.880;16.658;2022-11-14T22:48:30;6.00;;;4.13;;
26906;SDS011;14472;56.880;16.658;2022-11-14T22:51:01;4.70;;;4.17;;
26906;SDS011;14472;56.880;16.658;2022-11-14T22:53:27;4.93;;;4.03;;
26906;SDS011;14472;56.880;16.658;2022-11-14T22:55:54;4.43;;;3.87;;
26906;SDS011;14472;56.880;16.658;2022-11-14T22:58:20;4.37;;;3.97;;
26906;SDS011;14472;56.880;16.658;2022-11-14T23:00:46;4.57;;;4.17;;
26906;SDS011;14472;56.880;16.658;2022-11-14T23:03:11;4.37;;;3.97;;
26906;SDS011;14472;56.880;16.658;2022-11-14T23:05:43;4.93;;;4.43;;
26906;SDS011;14472;56.880;16.658;2022-11-14T23:08:09;4.30;;;3.90;;
26906;SDS011;14472;56.880;16.658;2022-11-14T23:10:35;4.60;;;4.20;;